Airfield :
LOGIN :

Register | Disclaimer

   EN    FR    IT 

 










Legend :    VFR   Marginal VFR   IFR   Intensive IFR   Very Intensive IFR
Visi :
Ceiling :
>= 8 km
>= 3000ft
5 to 8 km
1000 to 3000 ft
1500m to 5 km
500 to 1000 ft
800 to 1500m
200 to 500 ft
< 800m
< 200 ft
Symbols :   Thunderstorms  Fog  Heavy snow  Heavy precipitations  Wind > 20 kt
SIGMETs :     Misc.  Thunderstorms  Icing  Turbulence  Mountain Waves  Volcanic Ashes







- Airport Elevation : -15 ft
- IATA code : RTM


EHRD - Rotterdam Zestienhoven

CURRENT METAR :
  • 172355Z AUTO 21005KT 170V240 9999 NCD 15/13 Q1020 NOSIG

EXPIRED METARs :
  • 172325Z AUTO 20005KT 9999 NSC 16/13 Q1020 NOSIG
  • 172255Z AUTO 19005KT 9999 NSC 16/13 Q1020 NOSIG
  • 172225Z AUTO 19006KT 160V220 9999 NSC 16/13 Q1020 NOSIG
  • 172155Z AUTO 20003KT 9999 NSC 15/12 Q1020 NOSIG
  • 172125Z AUTO 21005KT 9999 NSC 14/12 Q1020 NOSIG

TAF TAF EHRD
Valid from the 18 at 00:00 until the 19 at 06:00 UTC


172248Z 1800/1906 19006KT CAVOK
BECMG 1808/1810 23014KT SCT020
BECMG 1818/1821 21006KT
PROB40 1903/1906 4000 BR BKN005
No reported NOTAMs for that airfield.



MET'MAP, your aeronautical weather chart ! - Copyright ORBIFLY December 2007 - Disclaimer

ORBIFLY MET'MAP TEAM :

Programming & Development : Alexandra Zaïnal
Concept & Development : Baudouin d'Aumeries
Co-Development & Prog : Marc-Olivier Méhu
Technical & hardware support : Manuel Goepfert

Contact : metmap@orbifly.com




SOURCES & CREDITS :

   NOAA